sensor_id;sensor_type;location;lat;lon;timestamp;temperature;humidity
11569;DHT22;5840;46.894;15.542;2023-09-12T00:00:24;18.10;99.90
11569;DHT22;5840;46.894;15.542;2023-09-12T00:02:51;18.10;99.90
11569;DHT22;5840;46.894;15.542;2023-09-12T00:05:17;18.10;99.90
11569;DHT22;5840;46.894;15.542;2023-09-12T00:07:44;18.00;99.90
11569;DHT22;5840;46.894;15.542;2023-09-12T00:10:13;18.00;99.90
11569;DHT22;5840;46.894;15.542;2023-09-12T00:12:40;18.00;99.90
11569;DHT22;5840;46.894;15.542;2023-09-12T00:15:07;18.00;99.90
11569;DHT22;5840;46.894;15.542;2023-09-12T00:17:34;17.90;99.90
11569;DHT22;5840;46.894;15.542;2023-09-12T00:20:02;17.90;99.90
11569;DHT22;5840;46.894;15.542;2023-09-12T00:22:31;17.90;99.90
11569;DHT22;5840;46.894;15.542;2023-09-12T00:24:58;17.80;99.90
11569;DHT22;5840;46.894;15.542;2023-09-12T00:27:27;17.80;99.90
11569;DHT22;5840;46.894;15.542;2023-09-12T00:29:54;17.80;99.90
11569;DHT22;5840;46.894;15.542;2023-09-12T00:32:21;17.70;99.90
11569;DHT22;5840;46.894;15.542;2023-09-12T00:34:48;17.80;99.90
11569;DHT22;5840;46.894;15.542;2023-09-12T00:37:14;17.70;99.90
11569;DHT22;5840;46.894;15.542;2023-09-12T00:39:41;17.70;99.90
11569;DHT22;5840;46.894;15.542;2023-09-12T00:42:08;17.70;99.90
11569;DHT22;5840;46.894;15.542;2023-09-12T00:44:36;17.60;99.90
11569;DHT22;5840;46.894;15.542;2023-09-12T00:47:04;17.60;99.90
11569;DHT22;5840;46.894;15.542;2023-09-12T00:49:31;17.60;99.90
11569;DHT22;5840;46.894;15.542;2023-09-12T00:51:59;17.50;99.90
11569;DHT22;5840;46.894;15.542;2023-09-12T00:54:27;17.50;99.90
11569;DHT22;5840;46.894;15.542;2023-09-12T00:56:54;17.40;99.90
11569;DHT22;5840;46.894;15.542;2023-09-12T00:59:22;17.40;99.90
11569;DHT22;5840;46.894;15.542;2023-09-12T01:01:50;17.40;99.90
11569;DHT22;5840;46.894;15.542;2023-09-12T01:04:17;17.30;99.90
11569;DHT22;5840;46.894;15.542;2023-09-12T01:06:45;17.30;99.90
11569;DHT22;5840;46.894;15.542;2023-09-12T01:09:14;17.30;99.90
11569;DHT22;5840;46.894;15.542;2023-09-12T01:11:41;17.30;99.90
11569;DHT22;5840;46.894;15.542;2023-09-12T01:14:08;17.30;99.90
11569;DHT22;5840;46.894;15.542;2023-09-12T01:16:35;17.30;99.90
11569;DHT22;5840;46.894;15.542;2023-09-12T01:19:04;17.20;99.90
11569;DHT22;5840;46.894;15.542;2023-09-12T01:22:11;17.10;99.90
11569;DHT22;5840;46.894;15.542;2023-09-12T01:27:54;17.10;99.90
11569;DHT22;5840;46.894;15.542;2023-09-12T01:30:22;17.10;99.90
11569;DHT22;5840;46.894;15.542;2023-09-12T01:32:49;17.00;99.90
11569;DHT22;5840;46.894;15.542;2023-09-12T01:35:17;17.00;99.90
11569;DHT22;5840;46.894;15.542;2023-09-12T01:37:44;17.00;99.90
11569;DHT22;5840;46.894;15.542;2023-09-12T01:40:11;17.00;99.90
11569;DHT22;5840;46.894;15.542;2023-09-12T01:42:41;17.00;99.90
11569;DHT22;5840;46.894;15.542;2023-09-12T01:45:13;17.00;99.90
11569;DHT22;5840;46.894;15.542;2023-09-12T01:47:41;17.00;99.90
11569;DHT22;5840;46.894;15.542;2023-09-12T01:50:09;17.00;99.90
11569;DHT22;5840;46.894;15.542;2023-09-12T01:52:38;17.00;99.90
11569;DHT22;5840;46.894;15.542;2023-09-12T01:55:07;17.00;99.90
11569;DHT22;5840;46.894;15.542;2023-09-12T01:57:36;17.00;99.90
11569;DHT22;5840;46.894;15.542;2023-09-12T02:00:04;17.00;99.90
11569;DHT22;5840;46.894;15.542;2023-09-12T02:02:32;17.00;99.90
11569;DHT22;5840;46.894;15.542;2023-09-12T02:05:06;17.00;99.90
11569;DHT22;5840;46.894;15.542;2023-09-12T02:07:37;16.90;99.90
11569;DHT22;5840;46.894;15.542;2023-09-12T02:10:05;16.90;99.90
11569;DHT22;5840;46.894;15.542;2023-09-12T02:12:32;16.90;99.90
11569;DHT22;5840;46.894;15.542;2023-09-12T02:14:59;16.90;99.90
11569;DHT22;5840;46.894;15.542;2023-09-12T02:17:26;16.90;99.90
11569;DHT22;5840;46.894;15.542;2023-09-12T02:19:54;16.90;99.90
11569;DHT22;5840;46.894;15.542;2023-09-12T02:22:21;16.90;99.90
11569;DHT22;5840;46.894;15.542;2023-09-12T02:24:48;16.90;99.90
11569;DHT22;5840;46.894;15.542;2023-09-12T02:27:15;16.90;99.90
11569;DHT22;5840;46.894;15.542;2023-09-12T02:29:42;17.00;99.90
11569;DHT22;5840;46.894;15.542;2023-09-12T02:32:09;17.00;99.90
11569;DHT22;5840;46.894;15.542;2023-09-12T02:34:36;16.90;99.90
11569;DHT22;5840;46.894;15.542;2023-09-12T02:37:05;16.90;99.90
11569;DHT22;5840;46.894;15.542;2023-09-12T02:39:31;16.90;99.90
11569;DHT22;5840;46.894;15.542;2023-09-12T02:41:58;16.80;99.90
11569;DHT22;5840;46.894;15.542;2023-09-12T02:44:25;16.80;99.90
11569;DHT22;5840;46.894;15.542;2023-09-12T02:46:52;16.70;99.90
11569;DHT22;5840;46.894;15.542;2023-09-12T02:49:19;16.70;99.90
11569;DHT22;5840;46.894;15.542;2023-09-12T02:51:46;16.70;99.90
11569;DHT22;5840;46.894;15.542;2023-09-12T02:54:14;16.70;99.90
11569;DHT22;5840;46.894;15.542;2023-09-12T02:56:41;16.70;99.90
11569;DHT22;5840;46.894;15.542;2023-09-12T02:59:08;16.70;99.90
11569;DHT22;5840;46.894;15.542;2023-09-12T03:01:35;16.70;99.90
11569;DHT22;5840;46.894;15.542;2023-09-12T03:04:02;16.60;99.90
11569;DHT22;5840;46.894;15.542;2023-09-12T03:06:29;16.60;99.90
11569;DHT22;5840;46.894;15.542;2023-09-12T03:08:57;16.60;99.90
11569;DHT22;5840;46.894;15.542;2023-09-12T03:11:27;16.60;99.90
11569;DHT22;5840;46.894;15.542;2023-09-12T03:13:55;16.50;99.90
11569;DHT22;5840;46.894;15.542;2023-09-12T03:16:22;16.50;99.90
11569;DHT22;5840;46.894;15.542;2023-09-12T03:18:49;16.50;99.90
11569;DHT22;5840;46.894;15.542;2023-09-12T03:21:16;16.50;99.90
11569;DHT22;5840;46.894;15.542;2023-09-12T03:23:43;16.50;99.90
11569;DHT22;5840;46.894;15.542;2023-09-12T03:26:10;16.50;99.90
11569;DHT22;5840;46.894;15.542;2023-09-12T03:28:38;16.50;99.90
11569;DHT22;5840;46.894;15.542;2023-09-12T03:31:08;16.50;99.90
11569;DHT22;5840;46.894;15.542;2023-09-12T03:33:37;16.40;99.90
11569;DHT22;5840;46.894;15.542;2023-09-12T03:36:05;16.40;99.90
11569;DHT22;5840;46.894;15.542;2023-09-12T03:38:32;16.40;99.90
11569;DHT22;5840;46.894;15.542;2023-09-12T03:40:59;16.40;99.90
11569;DHT22;5840;46.894;15.542;2023-09-12T03:43:26;16.40;99.90
11569;DHT22;5840;46.894;15.542;2023-09-12T03:45:54;16.30;99.90
11569;DHT22;5840;46.894;15.542;2023-09-12T03:48:21;16.30;99.90
11569;DHT22;5840;46.894;15.542;2023-09-12T03:50:48;16.30;99.90
11569;DHT22;5840;46.894;15.542;2023-09-12T03:53:15;16.30;99.90
11569;DHT22;5840;46.894;15.542;2023-09-12T03:55:42;16.20;99.90
11569;DHT22;5840;46.894;15.542;2023-09-12T03:58:09;16.30;99.90
11569;DHT22;5840;46.894;15.542;2023-09-12T04:00:36;16.30;99.90
11569;DHT22;5840;46.894;15.542;2023-09-12T04:03:04;16.20;99.90
11569;DHT22;5840;46.894;15.542;2023-09-12T04:05:31;16.20;99.90
11569;DHT22;5840;46.894;15.542;2023-09-12T04:07:58;16.20;99.90
11569;DHT22;5840;46.894;15.542;2023-09-12T04:10:25;16.20;99.90
11569;DHT22;5840;46.894;15.542;2023-09-12T04:12:52;16.20;99.90
11569;DHT22;5840;46.894;15.542;2023-09-12T04:15:19;16.20;99.90
11569;DHT22;5840;46.894;15.542;2023-09-12T04:17:45;16.20;99.90
11569;DHT22;5840;46.894;15.542;2023-09-12T04:20:14;16.20;99.90
11569;DHT22;5840;46.894;15.542;2023-09-12T04:22:41;16.20;99.90
11569;DHT22;5840;46.894;15.542;2023-09-12T04:25:08;16.20;99.90
11569;DHT22;5840;46.894;15.542;2023-09-12T04:27:35;16.10;99.90
11569;DHT22;5840;46.894;15.542;2023-09-12T04:30:04;16.10;99.90
11569;DHT22;5840;46.894;15.542;2023-09-12T04:32:31;16.20;99.90
11569;DHT22;5840;46.894;15.542;2023-09-12T04:34:58;16.10;99.90
11569;DHT22;5840;46.894;15.542;2023-09-12T04:37:26;16.10;99.90
11569;DHT22;5840;46.894;15.542;2023-09-12T04:39:53;16.10;99.90
11569;DHT22;5840;46.894;15.542;2023-09-12T04:42:20;16.10;99.90
11569;DHT22;5840;46.894;15.542;2023-09-12T04:44:47;16.10;99.90
11569;DHT22;5840;46.894;15.542;2023-09-12T04:47:14;16.10;99.90
11569;DHT22;5840;46.894;15.542;2023-09-12T04:49:41;16.10;99.90
11569;DHT22;5840;46.894;15.542;2023-09-12T04:52:08;16.10;99.90
11569;DHT22;5840;46.894;15.542;2023-09-12T04:54:37;16.10;99.90
11569;DHT22;5840;46.894;15.542;2023-09-12T04:57:04;16.10;99.90
11569;DHT22;5840;46.894;15.542;2023-09-12T04:59:31;16.10;99.90
11569;DHT22;5840;46.894;15.542;2023-09-12T05:01:58;16.10;99.90
11569;DHT22;5840;46.894;15.542;2023-09-12T05:04:24;16.00;99.90
11569;DHT22;5840;46.894;15.542;2023-09-12T05:06:51;16.00;99.90
11569;DHT22;5840;46.894;15.542;2023-09-12T05:09:19;16.00;99.90
11569;DHT22;5840;46.894;15.542;2023-09-12T05:11:47;16.00;99.90
11569;DHT22;5840;46.894;15.542;2023-09-12T05:14:14;16.00;99.90
11569;DHT22;5840;46.894;15.542;2023-09-12T05:16:41;16.00;99.90
11569;DHT22;5840;46.894;15.542;2023-09-12T05:19:07;16.00;99.90
11569;DHT22;5840;46.894;15.542;2023-09-12T05:21:34;16.00;99.90
11569;DHT22;5840;46.894;15.542;2023-09-12T05:24:01;16.00;99.90
11569;DHT22;5840;46.894;15.542;2023-09-12T05:26:28;16.10;99.90
11569;DHT22;5840;46.894;15.542;2023-09-12T05:28:57;16.10;99.90
11569;DHT22;5840;46.894;15.542;2023-09-12T05:31:23;16.20;99.90
11569;DHT22;5840;46.894;15.542;2023-09-12T05:33:51;16.30;99.90
11569;DHT22;5840;46.894;15.542;2023-09-12T05:36:17;16.30;99.90
11569;DHT22;5840;46.894;15.542;2023-09-12T05:38:44;16.40;99.90
11569;DHT22;5840;46.894;15.542;2023-09-12T05:41:11;16.40;99.90
11569;DHT22;5840;46.894;15.542;2023-09-12T05:43:38;16.40;99.90
11569;DHT22;5840;46.894;15.542;2023-09-12T05:46:06;16.40;99.90
11569;DHT22;5840;46.894;15.542;2023-09-12T05:48:33;16.50;99.90
11569;DHT22;5840;46.894;15.542;2023-09-12T05:51:00;16.50;99.90
11569;DHT22;5840;46.894;15.542;2023-09-12T05:53:27;16.60;99.90
11569;DHT22;5840;46.894;15.542;2023-09-12T05:55:54;16.60;99.90
11569;DHT22;5840;46.894;15.542;2023-09-12T05:58:21;16.70;99.90
11569;DHT22;5840;46.894;15.542;2023-09-12T06:00:48;16.80;99.90
11569;DHT22;5840;46.894;15.542;2023-09-12T06:03:16;16.90;99.90
11569;DHT22;5840;46.894;15.542;2023-09-12T06:05:43;17.00;99.90
11569;DHT22;5840;46.894;15.542;2023-09-12T06:08:10;17.10;99.90
11569;DHT22;5840;46.894;15.542;2023-09-12T06:10:37;17.20;99.90
11569;DHT22;5840;46.894;15.542;2023-09-12T06:13:04;17.30;99.90
11569;DHT22;5840;46.894;15.542;2023-09-12T06:15:31;17.50;99.90
11569;DHT22;5840;46.894;15.542;2023-09-12T06:17:57;17.60;99.90
11569;DHT22;5840;46.894;15.542;2023-09-12T06:20:26;17.70;99.90
11569;DHT22;5840;46.894;15.542;2023-09-12T06:22:53;17.80;99.90
11569;DHT22;5840;46.894;15.542;2023-09-12T06:25:20;17.90;99.90
11569;DHT22;5840;46.894;15.542;2023-09-12T06:27:46;17.90;99.90
11569;DHT22;5840;46.894;15.542;2023-09-12T06:30:15;18.00;99.90
11569;DHT22;5840;46.894;15.542;2023-09-12T06:32:42;18.10;99.90
11569;DHT22;5840;46.894;15.542;2023-09-12T06:35:09;18.30;99.90
11569;DHT22;5840;46.894;15.542;2023-09-12T06:37:38;18.40;99.90
11569;DHT22;5840;46.894;15.542;2023-09-12T06:40:07;18.50;99.90
11569;DHT22;5840;46.894;15.542;2023-09-12T06:42:34;18.50;99.90
11569;DHT22;5840;46.894;15.542;2023-09-12T06:45:01;18.60;99.90
11569;DHT22;5840;46.894;15.542;2023-09-12T06:47:28;18.60;99.90
11569;DHT22;5840;46.894;15.542;2023-09-12T06:49:54;18.70;99.90
11569;DHT22;5840;46.894;15.542;2023-09-12T06:52:21;18.70;99.90
11569;DHT22;5840;46.894;15.542;2023-09-12T06:54:50;18.80;99.90
11569;DHT22;5840;46.894;15.542;2023-09-12T06:57:16;18.90;99.90
11569;DHT22;5840;46.894;15.542;2023-09-12T06:59:44;19.00;99.90
11569;DHT22;5840;46.894;15.542;2023-09-12T07:02:10;19.10;99.90
11569;DHT22;5840;46.894;15.542;2023-09-12T07:04:38;19.20;99.90
11569;DHT22;5840;46.894;15.542;2023-09-12T07:07:05;19.30;99.90
11569;DHT22;5840;46.894;15.542;2023-09-12T07:09:32;19.40;99.90
11569;DHT22;5840;46.894;15.542;2023-09-12T07:12:00;19.50;99.90
11569;DHT22;5840;46.894;15.542;2023-09-12T07:14:27;19.70;99.90
11569;DHT22;5840;46.894;15.542;2023-09-12T07:16:55;19.80;99.90
11569;DHT22;5840;46.894;15.542;2023-09-12T07:19:22;20.00;99.90
11569;DHT22;5840;46.894;15.542;2023-09-12T07:21:49;20.20;99.90
11569;DHT22;5840;46.894;15.542;2023-09-12T07:24:16;20.40;99.90
11569;DHT22;5840;46.894;15.542;2023-09-12T07:26:43;20.60;99.90
11569;DHT22;5840;46.894;15.542;2023-09-12T07:29:13;20.70;99.90
11569;DHT22;5840;46.894;15.542;2023-09-12T07:31:40;20.90;99.90
11569;DHT22;5840;46.894;15.542;2023-09-12T07:34:07;21.10;99.90
11569;DHT22;5840;46.894;15.542;2023-09-12T07:36:35;21.30;99.90
11569;DHT22;5840;46.894;15.542;2023-09-12T07:39:02;21.50;99.90
11569;DHT22;5840;46.894;15.542;2023-09-12T07:41:29;21.80;99.90
11569;DHT22;5840;46.894;15.542;2023-09-12T07:43:56;22.10;99.90
11569;DHT22;5840;46.894;15.542;2023-09-12T07:46:24;22.30;99.90
11569;DHT22;5840;46.894;15.542;2023-09-12T07:48:51;22.60;99.90
11569;DHT22;5840;46.894;15.542;2023-09-12T07:51:19;22.80;99.90
11569;DHT22;5840;46.894;15.542;2023-09-12T07:53:45;23.10;99.90
11569;DHT22;5840;46.894;15.542;2023-09-12T07:56:12;23.30;99.90
11569;DHT22;5840;46.894;15.542;2023-09-12T07:58:39;23.50;99.90
11569;DHT22;5840;46.894;15.542;2023-09-12T08:01:06;23.80;99.90
11569;DHT22;5840;46.894;15.542;2023-09-12T08:03:36;24.10;99.90
11569;DHT22;5840;46.894;15.542;2023-09-12T08:06:05;24.30;99.90
11569;DHT22;5840;46.894;15.542;2023-09-12T08:08:32;24.40;99.90
11569;DHT22;5840;46.894;15.542;2023-09-12T08:10:59;24.50;99.90
11569;DHT22;5840;46.894;15.542;2023-09-12T08:13:27;24.80;99.90
11569;DHT22;5840;46.894;15.542;2023-09-12T08:15:54;25.00;99.90
11569;DHT22;5840;46.894;15.542;2023-09-12T08:18:21;25.30;99.90
11569;DHT22;5840;46.894;15.542;2023-09-12T08:20:49;25.60;99.90
11569;DHT22;5840;46.894;15.542;2023-09-12T08:23:16;25.60;99.90
11569;DHT22;5840;46.894;15.542;2023-09-12T08:25:43;25.70;99.90
11569;DHT22;5840;46.894;15.542;2023-09-12T08:28:10;25.90;99.90
11569;DHT22;5840;46.894;15.542;2023-09-12T08:30:37;26.00;99.90
11569;DHT22;5840;46.894;15.542;2023-09-12T08:33:04;26.10;99.90
11569;DHT22;5840;46.894;15.542;2023-09-12T08:35:32;26.30;99.90
11569;DHT22;5840;46.894;15.542;2023-09-12T08:38:00;26.50;99.90
11569;DHT22;5840;46.894;15.542;2023-09-12T08:40:27;26.80;99.90
11569;DHT22;5840;46.894;15.542;2023-09-12T08:42:57;26.70;99.90
11569;DHT22;5840;46.894;15.542;2023-09-12T08:45:25;26.90;99.90
11569;DHT22;5840;46.894;15.542;2023-09-12T08:47:53;27.00;99.90
11569;DHT22;5840;46.894;15.542;2023-09-12T08:50:21;27.10;99.90
11569;DHT22;5840;46.894;15.542;2023-09-12T08:52:50;27.20;99.90
11569;DHT22;5840;46.894;15.542;2023-09-12T08:55:19;27.20;99.90
11569;DHT22;5840;46.894;15.542;2023-09-12T08:57:50;27.30;99.90
11569;DHT22;5840;46.894;15.542;2023-09-12T09:00:17;27.30;99.90
11569;DHT22;5840;46.894;15.542;2023-09-12T09:02:45;27.60;99.90
11569;DHT22;5840;46.894;15.542;2023-09-12T09:05:13;27.70;99.90
11569;DHT22;5840;46.894;15.542;2023-09-12T09:07:41;27.90;99.90
11569;DHT22;5840;46.894;15.542;2023-09-12T09:10:14;28.00;99.90
11569;DHT22;5840;46.894;15.542;2023-09-12T09:12:44;28.10;99.90
11569;DHT22;5840;46.894;15.542;2023-09-12T09:15:21;28.10;99.90
11569;DHT22;5840;46.894;15.542;2023-09-12T09:17:49;28.30;99.90
11569;DHT22;5840;46.894;15.542;2023-09-12T09:20:24;28.40;99.90
11569;DHT22;5840;46.894;15.542;2023-09-12T09:22:59;28.40;99.90
11569;DHT22;5840;46.894;15.542;2023-09-12T09:25:27;28.30;99.90
11569;DHT22;5840;46.894;15.542;2023-09-12T09:27:55;28.40;99.90
11569;DHT22;5840;46.894;15.542;2023-09-12T09:30:40;28.40;99.90
11569;DHT22;5840;46.894;15.542;2023-09-12T09:33:07;28.60;99.90
11569;DHT22;5840;46.894;15.542;2023-09-12T09:35:35;28.60;99.90
11569;DHT22;5840;46.894;15.542;2023-09-12T09:38:04;28.50;99.90
11569;DHT22;5840;46.894;15.542;2023-09-12T09:40:32;28.60;99.90
11569;DHT22;5840;46.894;15.542;2023-09-12T09:43:02;28.70;99.90
11569;DHT22;5840;46.894;15.542;2023-09-12T09:45:30;28.90;99.90
11569;DHT22;5840;46.894;15.542;2023-09-12T09:47:58;28.80;99.40
11569;DHT22;5840;46.894;15.542;2023-09-12T09:50:26;28.90;99.90
11569;DHT22;5840;46.894;15.542;2023-09-12T09:52:54;29.10;99.90
11569;DHT22;5840;46.894;15.542;2023-09-12T09:55:23;29.30;99.90
11569;DHT22;5840;46.894;15.542;2023-09-12T09:57:50;29.40;98.60
11569;DHT22;5840;46.894;15.542;2023-09-12T10:00:22;29.50;99.50
11569;DHT22;5840;46.894;15.542;2023-09-12T10:02:50;29.70;99.90
11569;DHT22;5840;46.894;15.542;2023-09-12T10:05:18;29.70;99.90
11569;DHT22;5840;46.894;15.542;2023-09-12T10:07:48;29.80;99.90
11569;DHT22;5840;46.894;15.542;2023-09-12T10:10:17;30.00;99.90
11569;DHT22;5840;46.894;15.542;2023-09-12T10:12:49;30.00;98.90
11569;DHT22;5840;46.894;15.542;2023-09-12T10:15:20;30.00;99.90
11569;DHT22;5840;46.894;15.542;2023-09-12T10:17:54;30.10;99.10
11569;DHT22;5840;46.894;15.542;2023-09-12T10:20:25;30.10;98.50
11569;DHT22;5840;46.894;15.542;2023-09-12T10:23:00;30.20;99.90
11569;DHT22;5840;46.894;15.542;2023-09-12T10:25:29;30.30;99.90
11569;DHT22;5840;46.894;15.542;2023-09-12T10:27:56;30.50;99.90
11569;DHT22;5840;46.894;15.542;2023-09-12T10:30:25;30.50;98.60
11569;DHT22;5840;46.894;15.542;2023-09-12T10:32:53;30.60;98.90
11569;DHT22;5840;46.894;15.542;2023-09-12T10:35:20;30.80;98.00
11569;DHT22;5840;46.894;15.542;2023-09-12T10:37:49;30.80;97.70
11569;DHT22;5840;46.894;15.542;2023-09-12T10:40:18;30.60;97.00
11569;DHT22;5840;46.894;15.542;2023-09-12T10:42:46;30.80;97.20
11569;DHT22;5840;46.894;15.542;2023-09-12T10:45:13;30.90;98.10
11569;DHT22;5840;46.894;15.542;2023-09-12T10:47:42;31.10;99.90
11569;DHT22;5840;46.894;15.542;2023-09-12T10:50:09;31.30;99.90
11569;DHT22;5840;46.894;15.542;2023-09-12T10:52:36;31.30;98.00
11569;DHT22;5840;46.894;15.542;2023-09-12T10:55:06;31.50;98.10
11569;DHT22;5840;46.894;15.542;2023-09-12T10:57:33;31.30;95.40
11569;DHT22;5840;46.894;15.542;2023-09-12T11:00:11;31.10;96.50
11569;DHT22;5840;46.894;15.542;2023-09-12T11:02:39;31.10;97.30
11569;DHT22;5840;46.894;15.542;2023-09-12T11:05:38;31.20;97.90
11569;DHT22;5840;46.894;15.542;2023-09-12T11:08:17;31.20;96.80
11569;DHT22;5840;46.894;15.542;2023-09-12T11:10:44;31.20;99.30
11569;DHT22;5840;46.894;15.542;2023-09-12T11:13:17;31.30;96.50
11569;DHT22;5840;46.894;15.542;2023-09-12T11:16:12;31.30;95.20
11569;DHT22;5840;46.894;15.542;2023-09-12T11:19:14;31.30;97.00
11569;DHT22;5840;46.894;15.542;2023-09-12T11:21:43;31.40;98.00
11569;DHT22;5840;46.894;15.542;2023-09-12T11:24:10;31.30;95.20
11569;DHT22;5840;46.894;15.542;2023-09-12T11:26:53;31.20;96.50
11569;DHT22;5840;46.894;15.542;2023-09-12T11:29:20;31.20;97.60
11569;DHT22;5840;46.894;15.542;2023-09-12T11:31:58;31.40;98.30
11569;DHT22;5840;46.894;15.542;2023-09-12T11:37:00;31.50;94.10
11569;DHT22;5840;46.894;15.542;2023-09-12T11:39:30;31.60;94.20
11569;DHT22;5840;46.894;15.542;2023-09-12T11:41:58;31.60;94.20
11569;DHT22;5840;46.894;15.542;2023-09-12T11:44:25;31.60;93.70
11569;DHT22;5840;46.894;15.542;2023-09-12T11:46:52;31.70;96.70
11569;DHT22;5840;46.894;15.542;2023-09-12T11:49:20;31.80;96.00
11569;DHT22;5840;46.894;15.542;2023-09-12T11:51:48;31.80;95.80
11569;DHT22;5840;46.894;15.542;2023-09-12T11:54:18;31.80;96.10
11569;DHT22;5840;46.894;15.542;2023-09-12T11:56:47;31.80;95.00
11569;DHT22;5840;46.894;15.542;2023-09-12T11:59:14;31.70;94.00
11569;DHT22;5840;46.894;15.542;2023-09-12T12:01:44;31.60;95.30
11569;DHT22;5840;46.894;15.542;2023-09-12T12:04:11;31.60;96.30
11569;DHT22;5840;46.894;15.542;2023-09-12T12:06:38;31.50;96.70
11569;DHT22;5840;46.894;15.542;2023-09-12T12:09:06;31.50;95.10
11569;DHT22;5840;46.894;15.542;2023-09-12T12:11:34;31.60;95.70
11569;DHT22;5840;46.894;15.542;2023-09-12T12:14:10;31.50;95.70
11569;DHT22;5840;46.894;15.542;2023-09-12T12:16:37;31.40;96.10
11569;DHT22;5840;46.894;15.542;2023-09-12T12:19:04;31.50;96.80
11569;DHT22;5840;46.894;15.542;2023-09-12T12:21:31;31.50;94.90
11569;DHT22;5840;46.894;15.542;2023-09-12T12:23:59;31.50;94.40
11569;DHT22;5840;46.894;15.542;2023-09-12T12:26:26;31.50;93.80
11569;DHT22;5840;46.894;15.542;2023-09-12T12:28:55;31.50;95.80
11569;DHT22;5840;46.894;15.542;2023-09-12T12:31:22;31.40;94.10
11569;DHT22;5840;46.894;15.542;2023-09-12T12:33:51;31.10;94.90
11569;DHT22;5840;46.894;15.542;2023-09-12T12:36:19;30.90;96.30
11569;DHT22;5840;46.894;15.542;2023-09-12T12:38:48;30.80;95.00
11569;DHT22;5840;46.894;15.542;2023-09-12T12:41:16;30.60;96.80
11569;DHT22;5840;46.894;15.542;2023-09-12T12:43:43;30.60;97.40
11569;DHT22;5840;46.894;15.542;2023-09-12T12:46:12;30.70;97.10
11569;DHT22;5840;46.894;15.542;2023-09-12T12:48:43;30.80;96.00
11569;DHT22;5840;46.894;15.542;2023-09-12T12:51:15;30.80;95.30
11569;DHT22;5840;46.894;15.542;2023-09-12T12:53:44;31.00;96.50
11569;DHT22;5840;46.894;15.542;2023-09-12T12:56:14;31.10;97.60
11569;DHT22;5840;46.894;15.542;2023-09-12T12:58:46;31.00;94.70
11569;DHT22;5840;46.894;15.542;2023-09-12T13:01:15;31.00;96.60
11569;DHT22;5840;46.894;15.542;2023-09-12T13:03:42;31.00;96.20
11569;DHT22;5840;46.894;15.542;2023-09-12T13:06:10;31.00;96.00
11569;DHT22;5840;46.894;15.542;2023-09-12T13:08:40;31.00;96.00
11569;DHT22;5840;46.894;15.542;2023-09-12T13:11:08;30.70;95.00
11569;DHT22;5840;46.894;15.542;2023-09-12T13:13:35;30.80;94.50
11569;DHT22;5840;46.894;15.542;2023-09-12T13:16:03;30.80;94.90
11569;DHT22;5840;46.894;15.542;2023-09-12T13:18:33;30.70;96.80
11569;DHT22;5840;46.894;15.542;2023-09-12T13:21:00;30.70;96.10
11569;DHT22;5840;46.894;15.542;2023-09-12T13:23:27;30.60;95.20
11569;DHT22;5840;46.894;15.542;2023-09-12T13:25:54;30.50;97.40
11569;DHT22;5840;46.894;15.542;2023-09-12T13:28:21;30.30;93.90
11569;DHT22;5840;46.894;15.542;2023-09-12T13:30:51;30.10;94.40
11569;DHT22;5840;46.894;15.542;2023-09-12T13:33:17;30.00;96.00
11569;DHT22;5840;46.894;15.542;2023-09-12T13:35:46;29.80;95.70
11569;DHT22;5840;46.894;15.542;2023-09-12T13:38:13;29.70;95.60
11569;DHT22;5840;46.894;15.542;2023-09-12T13:40:42;29.60;98.20
11569;DHT22;5840;46.894;15.542;2023-09-12T13:43:10;29.50;97.50
11569;DHT22;5840;46.894;15.542;2023-09-12T13:45:37;29.50;97.10
11569;DHT22;5840;46.894;15.542;2023-09-12T13:48:05;29.50;96.80
11569;DHT22;5840;46.894;15.542;2023-09-12T13:50:32;29.50;96.70
11569;DHT22;5840;46.894;15.542;2023-09-12T13:53:01;29.40;97.20
11569;DHT22;5840;46.894;15.542;2023-09-12T13:55:32;29.30;97.10
11569;DHT22;5840;46.894;15.542;2023-09-12T13:58:00;29.30;98.30
11569;DHT22;5840;46.894;15.542;2023-09-12T14:00:27;29.10;97.00
11569;DHT22;5840;46.894;15.542;2023-09-12T14:02:55;29.10;97.40
11569;DHT22;5840;46.894;15.542;2023-09-12T14:05:22;29.10;97.10
11569;DHT22;5840;46.894;15.542;2023-09-12T14:07:50;29.10;99.10
11569;DHT22;5840;46.894;15.542;2023-09-12T14:10:19;29.10;99.80
11569;DHT22;5840;46.894;15.542;2023-09-12T14:12:47;29.10;97.80
11569;DHT22;5840;46.894;15.542;2023-09-12T14:15:15;29.10;97.10
11569;DHT22;5840;46.894;15.542;2023-09-12T14:17:43;29.20;98.30
11569;DHT22;5840;46.894;15.542;2023-09-12T14:20:12;29.20;98.00
11569;DHT22;5840;46.894;15.542;2023-09-12T14:22:42;29.20;98.50
11569;DHT22;5840;46.894;15.542;2023-09-12T14:25:11;29.10;96.60
11569;DHT22;5840;46.894;15.542;2023-09-12T14:27:44;29.10;97.80
11569;DHT22;5840;46.894;15.542;2023-09-12T14:30:13;29.10;97.90
11569;DHT22;5840;46.894;15.542;2023-09-12T14:32:44;29.00;97.90
11569;DHT22;5840;46.894;15.542;2023-09-12T14:35:12;29.10;98.50
11569;DHT22;5840;46.894;15.542;2023-09-12T14:37:45;29.00;97.90
11569;DHT22;5840;46.894;15.542;2023-09-12T14:40:16;29.00;98.60
11569;DHT22;5840;46.894;15.542;2023-09-12T14:42:47;29.00;97.40
11569;DHT22;5840;46.894;15.542;2023-09-12T14:45:17;29.00;99.20
11569;DHT22;5840;46.894;15.542;2023-09-12T14:47:46;29.00;97.50
11569;DHT22;5840;46.894;15.542;2023-09-12T14:50:15;28.90;97.50
11569;DHT22;5840;46.894;15.542;2023-09-12T14:52:44;28.90;97.20
11569;DHT22;5840;46.894;15.542;2023-09-12T14:55:12;28.90;99.20
11569;DHT22;5840;46.894;15.542;2023-09-12T14:57:41;28.90;97.90
11569;DHT22;5840;46.894;15.542;2023-09-12T15:00:12;28.90;98.70
11569;DHT22;5840;46.894;15.542;2023-09-12T15:02:41;28.80;98.00
11569;DHT22;5840;46.894;15.542;2023-09-12T15:05:09;28.70;99.20
11569;DHT22;5840;46.894;15.542;2023-09-12T15:07:38;28.70;99.90
11569;DHT22;5840;46.894;15.542;2023-09-12T15:10:07;28.70;99.30
11569;DHT22;5840;46.894;15.542;2023-09-12T15:12:35;28.60;98.70
11569;DHT22;5840;46.894;15.542;2023-09-12T15:15:04;28.50;99.70
11569;DHT22;5840;46.894;15.542;2023-09-12T15:17:33;28.50;99.60
11569;DHT22;5840;46.894;15.542;2023-09-12T15:20:01;28.40;99.00
11569;DHT22;5840;46.894;15.542;2023-09-12T15:22:31;28.40;97.50
11569;DHT22;5840;46.894;15.542;2023-09-12T15:24:59;28.30;99.00
11569;DHT22;5840;46.894;15.542;2023-09-12T15:27:26;28.30;98.30
11569;DHT22;5840;46.894;15.542;2023-09-12T15:29:55;28.30;97.90
11569;DHT22;5840;46.894;15.542;2023-09-12T15:32:23;28.20;98.60
11569;DHT22;5840;46.894;15.542;2023-09-12T15:34:53;28.20;99.50
11569;DHT22;5840;46.894;15.542;2023-09-12T15:37:21;28.20;98.70
11569;DHT22;5840;46.894;15.542;2023-09-12T15:39:49;28.10;98.80
11569;DHT22;5840;46.894;15.542;2023-09-12T15:42:19;28.10;99.30